Airfield :
LOGIN :

Register | Disclaimer

   EN    FR    IT 

 










Legend :    VFR   Marginal VFR   IFR   Intensive IFR   Very Intensive IFR
Visi :
Ceiling :
>= 8 km
>= 3000ft
5 to 8 km
1000 to 3000 ft
1500m to 5 km
500 to 1000 ft
800 to 1500m
200 to 500 ft
< 800m
< 200 ft
Symbols :   Thunderstorms  Fog  Heavy snow  Heavy precipitations  Wind > 20 kt
SIGMETs :     Misc.  Thunderstorms  Icing  Turbulence  Mountain Waves  Volcanic Ashes







- Airport Elevation : 675 ft
- IATA code : RZE


EPRZ - Rzeszow-Jasionka

CURRENT METAR :
  • 200830Z VRB02KT 1600 BR OVC002 11/11 Q1018

EXPIRED METARs :
  • 200800Z VRB01KT 0750 R27/1200U FG OVC002 11/10 Q1018
  • 200730Z VRB01KT 0350 R27/0750U FG OVC001 10/10 Q1018
  • 200700Z VRB01KT 0300 R27/0450N FG OVC001 10/10 Q1018
  • 200630Z VRB01KT 0350 R27/0600N FG VV001 10/10 Q1018
  • 200600Z 01003KT 0350 R27/0650N FG VV001 10/10 Q1018

TAF TAF EPRZ
Valid from the 20 at 06:00 until the 21 at 06:00 UTC


200530Z 2006/2106 VRB02KT 0100 FG OVC001
BECMG 2007/2010 4000 BR BKN005
TEMPO 2010/2015 7000 BKN012
BECMG 2018/2021 0500 FG BKN002
TEMPO 2022/2106 0200 FG OVC001
No reported NOTAMs for that airfield.



MET'MAP, your aeronautical weather chart ! - Copyright ORBIFLY December 2007 - Disclaimer

ORBIFLY MET'MAP TEAM :

Programming & Development : Alexandra Zaïnal
Concept & Development : Baudouin d'Aumeries
Co-Development & Prog : Marc-Olivier Méhu
Technical & hardware support : Manuel Goepfert

Contact : metmap@orbifly.com




SOURCES & CREDITS :

   NOAA